Angel Fire, New Mexico
Current Conditions -  °F | °C
As of 3:15 PM on Tuesday 21 Oct 2014 (Local Time) from KAXX Reporting Station
Overcast Overcast  
Wind Chill: 55°   Ceiling: 4200
Heat Index: 55°   Visibility: 10mi
Dew Point: 38°   Wind: 5mph
Humidity: 54%   Direction: 270°W
Pressure: 30.2"   Gusts: NA
Location:  36.39°N, 105.29°W
Report Text: KAXX 212115Z AUTO 27004KT 10SM SCT036 BKN042 OVC070 13/04 A3020 RMK AO2 T01250035
Loading
Personal Weather Stations






























Interactive Weather Map
Tropical Storm Tracking
New forecast layout! Learn more

10-Day Weather Forecast

Advertisements
Track Severe Weather on mobile